Time;durP1;ratioP1;P1;durP2;ratioP2;P2;SDS_P1;SDS_P2;PMS_P1;PMS_P2;Temp;Humidity;BMP_temperature;BMP_pressure;BME280_temperature;BME280_humidity;BME280_pressure;Samples;Min_cycle;Max_cycle;Signal;HPM_P1;HPM_P2
2022/06/01 00:00:44;;;;;;;24.40;18.50;;;8.50;99.90;;;;;;5035112;28;20049;-78
2022/06/01 00:03:10;;;;;;;25.38;17.55;;;8.50;99.90;;;;;;5053437;28;20063;-76
2022/06/01 00:05:36;;;;;;;24.17;18.08;;;8.50;99.90;;;;;;5053610;28;20052;-74
2022/06/01 00:08:03;;;;;;;24.17;16.67;;;9.60;99.90;;;;;;5053706;28;20404;-74
2022/06/01 00:10:29;;;;;;;24.10;16.15;;;8.40;99.90;;;;;;5054656;28;20044;-76
2022/06/01 00:12:55;;;;;;;26.42;17.17;;;8.50;99.90;;;;;;5036812;28;20053;-75
2022/06/01 00:15:21;;;;;;;24.02;17.02;;;8.60;99.90;;;;;;5054538;28;20072;-76
2022/06/01 00:17:47;;;;;;;25.08;17.90;;;8.50;99.90;;;;;;5054909;28;20063;-76
2022/06/01 00:20:14;;;;;;;24.60;17.38;;;8.50;99.90;;;;;;5054987;28;20120;-75
2022/06/01 00:22:41;;;;;;;22.77;16.77;;;8.60;99.90;;;;;;5054841;28;20425;-75
2022/06/01 00:25:07;;;;;;;23.60;15.50;;;8.50;99.90;;;;;;5054827;28;20037;-75
2022/06/01 00:27:34;;;;;;;26.52;16.88;;;8.60;99.90;;;;;;5037347;28;20045;-75
2022/06/01 00:30:00;;;;;;;27.90;17.48;;;8.60;99.90;;;;;;5037048;28;20060;-76
2022/06/01 00:32:25;;;;;;;24.33;17.52;;;8.60;99.90;;;;;;5055173;28;20044;-76
2022/06/01 00:34:51;;;;;;;22.88;16.25;;;8.60;99.90;;;;;;5055601;28;20143;-76
2022/06/01 00:37:17;;;;;;;26.90;17.80;;;8.60;99.90;;;;;;5056350;28;20037;-75
2022/06/01 00:39:44;;;;;;;29.50;17.83;;;8.60;99.90;;;;;;5054015;28;20547;-75
2022/06/01 00:42:11;;;;;;;26.05;17.45;;;8.60;99.90;;;;;;5034799;28;20048;-75
2022/06/01 00:44:36;;;;;;;25.40;17.80;;;8.60;99.90;;;;;;5052736;28;20037;-76
2022/06/01 00:47:02;;;;;;;24.80;17.00;;;8.60;99.90;;;;;;5052659;28;20515;-76
2022/06/01 00:49:28;;;;;;;24.05;17.70;;;8.70;99.90;;;;;;5052653;28;20124;-76
2022/06/01 00:51:54;;;;;;;24.80;17.35;;;8.70;99.90;;;;;;5052765;28;20045;-75
2022/06/01 00:54:21;;;;;;;27.05;17.95;;;8.70;99.90;;;;;;5052718;28;20094;-76
2022/06/01 00:56:53;;;;;;;25.60;16.98;;;8.70;99.90;;;;;;5034683;28;20534;-75
2022/06/01 00:59:22;;;;;;;29.00;18.63;;;8.80;99.90;;;;;;5052680;28;20087;-76
2022/06/01 01:01:49;;;;;;;26.85;17.88;;;8.80;99.90;;;;;;5052385;28;20102;-76
2022/06/01 01:04:15;;;;;;;28.88;18.42;;;8.80;99.90;;;;;;5052801;28;20045;-76
2022/06/01 01:06:43;;;;;;;27.38;19.20;;;8.80;99.90;;;;;;5052535;28;20044;-75
2022/06/01 01:09:10;;;;;;;25.73;19.00;;;8.90;99.90;;;;;;5052821;28;20056;-75
2022/06/01 01:11:58;;;;;;;30.95;19.70;;;8.80;99.90;;;;;;5052224;28;20068;-75
2022/06/01 01:14:28;;;;;;;29.20;19.88;;;8.80;99.90;;;;;;5034542;28;20116;-76
2022/06/01 01:16:54;;;;;;;30.13;18.70;;;8.80;99.90;;;;;;5052397;28;20088;-75
2022/06/01 01:19:22;;;;;;;31.70;19.90;;;8.80;99.90;;;;;;5034659;28;20141;-75
2022/06/01 01:22:03;;;;;;;29.75;19.60;;;8.80;99.90;;;;;;5052153;28;20523;-75
2022/06/01 01:25:17;;;;;;;34.40;20.08;;;8.90;99.90;;;;;;5052324;28;20492;-75
2022/06/01 01:27:45;;;;;;;27.55;19.52;;;8.90;99.90;;;;;;4976729;28;20052;-76
2022/06/01 01:30:29;;;;;;;27.73;19.25;;;8.90;99.90;;;;;;5052321;28;20041;-75
2022/06/01 01:32:55;;;;;;;27.50;20.50;;;8.80;99.90;;;;;;5052415;28;20045;-76
2022/06/01 01:35:20;;;;;;;32.75;20.73;;;8.80;99.90;;;;;;5052127;28;20045;-75
2022/06/01 01:37:48;;;;;;;27.73;20.35;;;8.90;99.90;;;;;;5034391;28;20045;-76
2022/06/01 01:40:14;;;;;;;29.35;19.30;;;8.90;99.90;;;;;;5052363;28;20041;-76
2022/06/01 01:42:40;;;;;;;27.42;20.00;;;8.90;99.90;;;;;;5034226;28;20056;-75
2022/06/01 01:45:23;;;;;;;30.92;20.08;;;8.90;99.90;;;;;;5052026;28;20041;-76
2022/06/01 01:47:50;;;;;;;32.33;20.92;;;9.00;99.90;;;;;;5037645;28;20048;-76
2022/06/01 01:50:16;;;;;;;29.48;19.88;;;9.00;99.90;;;;;;5038358;28;20446;-75
2022/06/01 01:52:42;;;;;;;27.80;19.67;;;9.00;99.90;;;;;;5056098;28;20158;-75
2022/06/01 01:55:20;;;;;;;27.73;19.10;;;8.90;99.90;;;;;;5056107;28;20450;-75
2022/06/01 02:00:52;;;;;;;27.00;18.05;;;8.90;99.90;;;;;;5088886;22;20055;-75
2022/06/01 02:03:30;;;;;;;27.55;19.08;;;8.90;99.90;;;;;;5056021;28;20053;-76
2022/06/01 02:06:12;;;;;;;27.80;19.33;;;8.80;99.90;;;;;;5037830;28;20107;-76
2022/06/01 02:08:48;;;;;;;31.77;19.77;;;8.80;99.90;;;;;;5065438;28;20048;-76
2022/06/01 02:14:30;;;;;;;34.20;20.02;;;8.70;99.90;;;;;;5075590;28;20424;-75
2022/06/01 02:17:05;;;;;;;30.50;19.48;;;8.70;99.90;;;;;;5055986;28;20045;-75
2022/06/01 02:19:49;;;;;;;26.42;19.80;;;8.70;99.90;;;;;;5055672;28;20451;-76
2022/06/01 02:22:15;;;;;;;35.33;22.67;;;8.70;99.90;;;;;;5055379;28;20045;-76
2022/06/01 02:24:42;;;;;;;33.15;22.63;;;8.60;99.90;;;;;;5055254;28;20098;-76
2022/06/01 02:27:11;;;;;;;33.20;22.80;;;8.60;99.90;;;;;;5055112;28;20041;-76
2022/06/01 02:29:46;;;;;;;37.28;23.23;;;8.70;99.90;;;;;;5055414;28;20045;-76
2022/06/01 02:32:13;;;;;;;36.15;22.90;;;8.70;99.90;;;;;;5064447;28;20052;-76
2022/06/01 02:34:41;;;;;;;36.15;23.90;;;8.70;99.90;;;;;;5060960;28;20049;-76
2022/06/01 02:37:08;;;;;;;35.45;22.25;;;8.70;99.90;;;;;;5054966;28;20495;-76
2022/06/01 02:39:36;;;;;;;36.05;24.38;;;8.70;99.90;;;;;;5055020;28;20076;-76
2022/06/01 02:44:55;;;;;;;35.83;23.55;;;8.90;99.90;;;;;;5054881;28;20052;-75
2022/06/01 02:47:21;;;;;;;33.65;23.15;;;8.90;99.90;;;;;;5054739;28;20048;-76
2022/06/01 02:49:47;;;;;;;35.03;22.50;;;8.90;99.90;;;;;;5054883;28;20041;-76
2022/06/01 02:52:13;;;;;;;36.08;22.88;;;8.90;99.90;;;;;;5054757;28;20384;-76
2022/06/01 02:54:38;;;;;;;33.33;23.63;;;8.90;99.90;;;;;;5054674;28;20044;-76
2022/06/01 02:57:04;;;;;;;34.80;23.58;;;8.90;99.90;;;;;;5054629;28;20037;-76
2022/06/01 02:59:30;;;;;;;38.33;24.10;;;8.90;99.90;;;;;;5053638;28;20045;-77
2022/06/01 03:01:55;;;;;;;32.45;22.85;;;8.90;99.90;;;;;;5054348;28;20548;-76
2022/06/01 03:04:21;;;;;;;35.33;23.08;;;8.90;99.90;;;;;;5054591;28;20048;-75
2022/06/01 03:06:46;;;;;;;36.58;25.20;;;8.90;99.90;;;;;;5054424;28;20071;-76
2022/06/01 03:09:12;;;;;;;37.58;24.20;;;8.90;99.90;;;;;;5071848;28;20549;-76
2022/06/01 03:11:37;;;;;;;42.10;24.45;;;8.90;99.90;;;;;;5074432;28;20044;-76
2022/06/01 03:14:03;;;;;;;35.92;23.63;;;8.90;99.90;;;;;;5074543;28;20036;-76
2022/06/01 03:16:29;;;;;;;35.80;24.40;;;8.90;99.90;;;;;;5074278;28;20032;-76
2022/06/01 03:18:54;;;;;;;38.45;26.67;;;9.00;99.90;;;;;;5074317;28;20620;-76
2022/06/01 03:21:20;;;;;;;34.30;25.35;;;9.00;99.90;;;;;;5074169;28;20037;-76
2022/06/01 03:23:46;;;;;;;37.08;24.35;;;9.00;99.90;;;;;;5074492;28;20045;-76
2022/06/01 03:26:12;;;;;;;39.25;24.83;;;9.30;99.90;;;;;;5056015;28;20044;-76
2022/06/01 03:28:39;;;;;;;37.78;24.77;;;9.10;99.90;;;;;;5074101;28;20048;-75
2022/06/01 03:31:06;;;;;;;35.25;24.90;;;9.10;99.90;;;;;;5073861;28;20067;-75
2022/06/01 03:33:32;;;;;;;39.65;26.02;;;9.10;99.90;;;;;;5074017;28;20102;-76
2022/06/01 03:35:58;;;;;;;36.95;25.48;;;9.20;99.90;;;;;;5073942;28;20070;-76
2022/06/01 03:38:23;;;;;;;48.00;27.23;;;9.20;99.90;;;;;;5074098;28;20143;-76
2022/06/01 03:40:49;;;;;;;38.10;25.90;;;9.20;99.90;;;;;;5073808;28;20530;-76
2022/06/01 03:43:15;;;;;;;36.13;26.10;;;9.20;99.90;;;;;;5073813;28;20082;-76
2022/06/01 03:45:56;;;;;;;36.55;25.60;;;9.30;99.90;;;;;;5073834;28;20044;-76
2022/06/01 03:48:30;;;;;;;36.60;25.15;;;9.30;99.90;;;;;;5073598;28;20462;-76
2022/06/01 03:50:57;;;;;;;38.75;26.48;;;9.30;99.90;;;;;;5073960;28;20059;-76
2022/06/01 03:53:24;;;;;;;36.65;26.10;;;9.30;99.90;;;;;;5073756;28;20098;-76
2022/06/01 03:55:52;;;;;;;39.47;27.08;;;9.40;99.90;;;;;;5073540;28;20044;-76
2022/06/01 03:58:23;;;;;;;36.60;26.13;;;9.40;99.90;;;;;;5073511;28;20048;-76
2022/06/01 04:00:49;;;;;;;34.90;26.20;;;9.40;99.90;;;;;;5055168;28;20049;-76
2022/06/01 04:03:15;;;;;;;33.25;25.33;;;9.40;99.90;;;;;;5073170;28;20048;-76
2022/06/01 04:05:41;;;;;;;36.80;26.55;;;9.60;99.90;;;;;;5073540;28;20043;-76
2022/06/01 04:08:08;;;;;;;35.50;26.00;;;9.50;99.90;;;;;;5070915;28;20044;-76
2022/06/01 04:10:35;;;;;;;33.15;25.38;;;9.50;99.90;;;;;;5072987;28;20060;-76
2022/06/01 04:13:01;;;;;;;33.53;24.88;;;9.50;99.90;;;;;;5073312;28;20090;-76
2022/06/01 04:15:27;;;;;;;35.75;25.92;;;9.50;99.90;;;;;;5073012;28;20040;-76
2022/06/01 04:17:53;;;;;;;32.72;24.83;;;9.60;99.90;;;;;;5072978;28;20048;-76
2022/06/01 04:20:19;;;;;;;36.03;26.05;;;9.60;99.90;;;;;;5072988;28;20044;-76
2022/06/01 04:22:45;;;;;;;36.33;25.80;;;9.70;99.90;;;;;;5073153;28;20047;-76
2022/06/01 04:25:15;;;;;;;38.20;25.83;;;9.80;99.90;;;;;;5055264;28;20551;-76
2022/06/01 04:27:42;;;;;;;32.08;24.75;;;10.00;99.90;;;;;;5073298;28;20398;-76
2022/06/01 04:30:11;;;;;;;29.42;23.98;;;10.00;99.90;;;;;;5072628;28;20044;-76
2022/06/01 04:32:36;;;;;;;32.42;23.23;;;10.10;99.90;;;;;;5072774;28;20048;-76
2022/06/01 04:35:04;;;;;;;28.27;22.65;;;10.20;99.90;;;;;;5072830;28;20048;-76
2022/06/01 04:37:29;;;;;;;28.90;22.58;;;10.20;99.90;;;;;;5054882;28;20049;-76
2022/06/01 04:39:55;;;;;;;30.70;20.83;;;10.20;99.90;;;;;;5072746;28;20475;-76
2022/06/01 04:42:21;;;;;;;27.52;21.45;;;10.30;99.90;;;;;;5037988;28;20055;-76
2022/06/01 04:44:47;;;;;;;27.83;20.77;;;10.20;99.90;;;;;;5072524;28;20040;-76
2022/06/01 04:47:12;;;;;;;28.48;21.80;;;10.20;99.90;;;;;;5073027;28;20048;-76
2022/06/01 04:49:38;;;;;;;28.67;22.65;;;10.30;99.90;;;;;;5072931;28;20397;-76
2022/06/01 04:52:05;;;;;;;30.05;22.10;;;10.30;99.90;;;;;;5072788;28;20101;-76
2022/06/01 04:54:30;;;;;;;27.33;21.25;;;10.40;99.90;;;;;;5072494;28;20510;-76
2022/06/01 04:56:56;;;;;;;26.58;21.33;;;11.60;99.90;;;;;;5072740;28;20055;-76
2022/06/01 04:59:21;;;;;;;31.20;22.98;;;10.40;99.90;;;;;;5072298;28;20068;-76
2022/06/01 05:01:47;;;;;;;35.55;24.33;;;10.40;99.90;;;;;;5070548;28;20044;-77
2022/06/01 05:04:14;;;;;;;28.45;22.23;;;10.50;99.90;;;;;;5069581;28;20380;-76
2022/06/01 05:06:39;;;;;;;31.98;24.20;;;10.30;99.90;;;;;;5069497;28;20044;-76
2022/06/01 05:09:05;;;;;;;28.48;23.00;;;10.30;99.90;;;;;;5069320;28;20047;-75
2022/06/01 05:11:31;;;;;;;29.98;23.48;;;10.40;99.90;;;;;;5069142;28;20137;-76
2022/06/01 05:13:56;;;;;;;31.77;23.10;;;10.40;99.90;;;;;;5069247;28;20040;-76
2022/06/01 05:16:22;;;;;;;30.15;23.40;;;10.50;99.90;;;;;;5051196;28;20490;-76
2022/06/01 05:18:48;;;;;;;32.47;22.58;;;10.60;99.90;;;;;;5069712;28;20090;-76
2022/06/01 05:21:13;;;;;;;29.92;22.35;;;10.70;99.90;;;;;;5070426;28;20115;-76
2022/06/01 05:23:39;;;;;;;27.70;22.33;;;10.80;99.90;;;;;;5073304;28;20048;-76
2022/06/01 05:26:05;;;;;;;27.05;21.38;;;11.10;99.90;;;;;;5073416;28;20090;-76
2022/06/01 05:28:33;;;;;;;28.25;21.00;;;11.00;99.90;;;;;;5073329;28;20047;-76
2022/06/01 05:31:01;;;;;;;26.27;20.83;;;11.10;99.90;;;;;;5076091;28;20117;-76
2022/06/01 05:33:26;;;;;;;24.77;20.10;;;11.10;99.90;;;;;;5058298;28;20044;-76
2022/06/01 05:35:52;;;;;;;28.35;20.50;;;11.10;99.90;;;;;;5076308;28;20482;-76
2022/06/01 05:38:18;;;;;;;27.33;21.10;;;11.10;99.90;;;;;;5075797;28;20105;-76
2022/06/01 05:40:44;;;;;;;26.17;21.23;;;11.20;99.90;;;;;;5075090;28;20041;-76
2022/06/01 05:43:12;;;;;;;24.52;19.58;;;11.20;99.90;;;;;;5075932;28;20056;-76
2022/06/01 05:45:39;;;;;;;25.88;19.30;;;11.30;99.90;;;;;;5075643;28;20059;-76
2022/06/01 05:48:06;;;;;;;24.17;19.48;;;11.30;99.90;;;;;;5058075;28;20083;-76
2022/06/01 05:50:32;;;;;;;24.95;17.88;;;11.40;99.90;;;;;;5076050;28;20040;-76
2022/06/01 05:52:57;;;;;;;23.52;18.45;;;11.40;99.90;;;;;;5075977;28;20044;-76
2022/06/01 05:55:23;;;;;;;24.10;19.17;;;11.40;99.90;;;;;;5075729;28;20043;-76
2022/06/01 05:57:49;;;;;;;26.70;18.15;;;11.40;99.90;;;;;;5075723;28;20433;-76
2022/06/01 06:00:16;;;;;;;27.27;19.13;;;11.50;99.90;;;;;;5075579;28;20056;-76
2022/06/01 06:02:42;;;;;;;20.50;17.77;;;11.60;99.90;;;;;;5075791;28;20119;-76
2022/06/01 06:07:53;;;;;;;24.75;18.20;;;11.80;99.90;;;;;;5075426;28;20510;-76
2022/06/01 06:10:20;;;;;;;28.38;18.25;;;11.90;99.90;;;;;;5057337;28;20045;-76
2022/06/01 06:12:45;;;;;;;20.25;16.70;;;12.10;99.90;;;;;;5075799;28;20045;-76
2022/06/01 06:15:12;;;;;;;21.20;17.15;;;12.20;99.90;;;;;;5075352;28;20131;-76
2022/06/01 06:17:37;;;;;;;20.40;16.98;;;12.20;99.90;;;;;;5075443;28;20113;-76
2022/06/01 06:20:04;;;;;;;20.23;16.48;;;12.30;99.90;;;;;;5075436;28;20092;-76
2022/06/01 06:22:30;;;;;;;23.85;17.23;;;12.20;99.90;;;;;;5075228;28;20036;-77
2022/06/01 06:24:55;;;;;;;21.40;16.10;;;12.10;99.90;;;;;;5075120;28;20455;-76
2022/06/01 06:27:21;;;;;;;18.98;15.77;;;13.10;99.90;;;;;;5075312;28;20039;-76
2022/06/01 06:29:46;;;;;;;17.42;15.20;;;12.00;99.90;;;;;;5075136;28;20040;-76
2022/06/01 06:32:12;;;;;;;20.48;16.10;;;11.90;99.90;;;;;;5075116;28;20045;-76
2022/06/01 06:34:38;;;;;;;18.52;15.00;;;11.90;99.90;;;;;;5075252;28;20048;-76
2022/06/01 06:37:04;;;;;;;18.35;14.90;;;11.90;99.90;;;;;;5075138;28;20049;-76
2022/06/01 06:39:30;;;;;;;20.33;15.65;;;12.00;99.90;;;;;;5074815;28;20037;-76
2022/06/01 06:41:56;;;;;;;18.17;14.95;;;12.00;99.90;;;;;;5074762;28;20514;-77
2022/06/01 06:44:21;;;;;;;19.40;15.20;;;12.00;99.90;;;;;;5074548;28;20039;-76
2022/06/01 06:46:47;;;;;;;21.52;15.88;;;13.00;99.90;;;;;;5074352;28;20474;-77
2022/06/01 06:49:12;;;;;;;19.70;16.02;;;12.30;99.90;;;;;;5074566;28;20048;-76
2022/06/01 06:51:38;;;;;;;21.30;16.63;;;12.40;99.90;;;;;;5074502;28;20120;-77
2022/06/01 06:54:04;;;;;;;18.75;14.65;;;12.60;99.90;;;;;;5074209;28;20040;-76
2022/06/01 06:56:29;;;;;;;18.35;14.30;;;12.80;99.90;;;;;;5074423;28;20059;-76
2022/06/01 06:58:55;;;;;;;17.17;13.35;;;13.00;99.90;;;;;;5074114;28;20040;-77
2022/06/01 07:01:21;;;;;;;14.10;11.15;;;13.10;99.90;;;;;;5074109;28;20079;-77
2022/06/01 07:03:47;;;;;;;14.00;11.35;;;13.60;99.90;;;;;;5074298;28;20044;-77
2022/06/01 07:06:12;;;;;;;13.77;10.80;;;13.50;99.90;;;;;;5074586;28;20505;-76
2022/06/01 07:08:41;;;;;;;12.18;10.05;;;13.80;99.90;;;;;;5074517;28;20086;-77
2022/06/01 07:11:07;;;;;;;11.93;9.25;;;13.90;99.90;;;;;;5074529;28;20387;-77
2022/06/01 07:13:33;;;;;;;14.48;10.48;;;14.10;99.90;;;;;;5056541;28;20045;-77
2022/06/01 07:16:01;;;;;;;12.43;9.80;;;14.30;99.90;;;;;;5074424;28;20040;-77
2022/06/01 07:18:27;;;;;;;11.93;9.90;;;14.50;99.90;;;;;;5074813;28;20177;-76
2022/06/01 07:20:52;;;;;;;13.40;9.38;;;14.80;99.90;;;;;;5074329;28;20123;-76
2022/06/01 07:23:18;;;;;;;12.45;9.60;;;14.90;99.90;;;;;;5074185;28;20128;-77
2022/06/01 07:25:43;;;;;;;13.02;9.00;;;15.00;99.90;;;;;;5056125;28;20049;-77
2022/06/01 07:28:10;;;;;;;15.02;9.95;;;15.10;99.90;;;;;;5074105;28;20444;-77
2022/06/01 07:30:36;;;;;;;11.98;8.57;;;15.20;99.90;;;;;;5074134;28;20049;-77
2022/06/01 07:33:01;;;;;;;11.98;7.35;;;15.30;99.90;;;;;;5074166;28;20051;-77
2022/06/01 07:35:27;;;;;;;8.60;6.25;;;15.20;99.90;;;;;;5074019;28;20048;-76
2022/06/01 07:43:23;;;;;;;7.47;5.68;;;15.50;99.90;;;;;;5073791;28;20189;-77
2022/06/01 07:45:50;;;;;;;9.18;6.18;;;15.70;99.90;;;;;;5073462;28;20044;-76
2022/06/01 07:48:17;;;;;;;10.80;8.18;;;16.00;99.90;;;;;;5073689;28;20075;-77
2022/06/01 07:50:43;;;;;;;9.57;7.28;;;15.90;99.90;;;;;;5073524;28;20055;-77
2022/06/01 07:53:09;;;;;;;8.98;6.35;;;16.20;99.90;;;;;;5072505;28;20040;-78
2022/06/01 07:55:36;;;;;;;7.25;5.35;;;16.30;99.90;;;;;;5070720;28;20502;-77
2022/06/01 07:58:03;;;;;;;8.38;6.15;;;16.30;99.90;;;;;;5070952;28;20127;-77
2022/06/01 08:00:29;;;;;;;8.02;6.57;;;16.20;99.90;;;;;;5070318;28;20452;-77
2022/06/01 08:02:55;;;;;;;8.52;5.93;;;16.30;99.90;;;;;;5070792;28;20044;-77
2022/06/01 08:05:21;;;;;;;8.75;6.32;;;16.40;99.90;;;;;;5070426;28;20044;-77
2022/06/01 08:07:48;;;;;;;10.07;5.95;;;16.40;99.90;;;;;;5052789;28;20050;-77
2022/06/01 08:10:16;;;;;;;10.25;6.15;;;16.40;99.90;;;;;;5070530;28;20036;-76
2022/06/01 08:15:26;;;;;;;12.00;7.57;;;16.50;99.90;;;;;;5070396;28;20059;-77
2022/06/01 08:17:57;;;;;;;10.98;8.07;;;16.40;99.90;;;;;;5070302;28;20041;-77
2022/06/01 08:20:23;;;;;;;11.48;8.95;;;16.40;99.90;;;;;;5070173;28;20051;-77
2022/06/01 08:22:49;;;;;;;10.82;7.78;;;16.80;99.90;;;;;;5070022;28;20141;-77
2022/06/01 08:25:16;;;;;;;10.73;8.15;;;17.20;99.90;;;;;;5052120;28;20105;-77
2022/06/01 08:27:43;;;;;;;18.90;8.60;;;17.40;99.90;;;;;;5070123;28;20070;-77
2022/06/01 08:30:09;;;;;;;11.10;8.15;;;17.30;99.70;;;;;;5070027;28;20509;-77
2022/06/01 08:32:35;;;;;;;10.80;8.00;;;17.20;98.40;;;;;;5070029;28;20075;-77
2022/06/01 08:35:03;;;;;;;11.80;8.68;;;17.00;97.00;;;;;;5071001;28;20128;-77
2022/06/01 08:37:29;;;;;;;11.52;8.18;;;16.70;99.90;;;;;;5071500;28;20044;-77
2022/06/01 08:39:54;;;;;;;12.35;8.13;;;16.70;99.90;;;;;;5072325;28;20041;-76
2022/06/01 08:42:23;;;;;;;9.80;7.80;;;16.50;99.90;;;;;;5072529;28;20399;-76
2022/06/01 08:44:50;;;;;;;10.57;7.40;;;16.50;99.90;;;;;;5072512;28;20048;-76
2022/06/01 08:47:18;;;;;;;10.77;7.47;;;16.30;99.90;;;;;;5072765;28;20102;-76
2022/06/01 08:49:45;;;;;;;9.57;6.55;;;16.20;99.90;;;;;;5072501;28;20036;-76
2022/06/01 08:52:12;;;;;;;9.52;5.80;;;15.80;99.90;;;;;;5072858;28;20049;-76
2022/06/01 08:54:38;;;;;;;8.55;6.22;;;15.20;99.90;;;;;;5072629;28;20041;-76
2022/06/01 08:57:20;;;;;;;7.05;5.32;;;14.60;99.90;;;;;;5071827;28;20060;-76
2022/06/01 09:00:03;;;;;;;8.15;6.20;;;14.10;99.90;;;;;;5072591;28;20431;-76
2022/06/01 09:02:40;;;;;;;7.22;4.80;;;13.60;99.90;;;;;;5072398;28;20049;-76
2022/06/01 09:05:20;;;;;;;6.40;4.38;;;13.30;99.90;;;;;;5072566;28;20040;-76
2022/06/01 09:07:59;;;;;;;8.43;4.32;;;13.10;99.90;;;;;;5072970;28;20444;-76
2022/06/01 09:10:54;;;;;;;5.03;2.90;;;12.80;99.90;;;;;;5072524;28;20045;-76
2022/06/01 09:13:24;;;;;;;5.38;2.53;;;12.50;99.90;;;;;;5072608;28;20048;-77
2022/06/01 09:16:03;;;;;;;6.05;3.50;;;12.20;99.90;;;;;;5072288;28;20494;-77
2022/06/01 09:18:35;;;;;;;6.72;3.60;;;12.10;99.90;;;;;;5072433;28;20562;-76
2022/06/01 09:23:46;;;;;;;4.25;2.95;;;12.20;99.90;;;;;;5072383;28;20055;-76
2022/06/01 09:26:28;;;;;;;4.35;2.75;;;12.30;99.90;;;;;;5072189;28;20044;-76
2022/06/01 09:28:57;;;;;;;5.80;3.05;;;12.50;99.90;;;;;;5072408;28;20089;-76
2022/06/01 09:31:39;;;;;;;7.20;3.90;;;12.70;99.90;;;;;;5054127;28;20032;-76
2022/06/01 09:34:28;;;;;;;8.00;4.07;;;13.10;99.90;;;;;;5072525;28;20374;-76
2022/06/01 09:37:20;;;;;;;10.77;3.70;;;13.40;99.90;;;;;;5072398;28;20044;-76
2022/06/01 09:39:56;;;;;;;5.55;3.63;;;13.90;99.90;;;;;;5072177;28;20090;-76
2022/06/01 09:42:32;;;;;;;5.80;3.67;;;14.00;99.90;;;;;;5072093;28;20083;-76
2022/06/01 09:44:59;;;;;;;10.05;3.92;;;14.10;99.90;;;;;;5071966;28;20171;-76
2022/06/01 09:47:37;;;;;;;9.23;4.28;;;14.00;99.90;;;;;;5072143;28;20052;-76
2022/06/01 09:50:07;;;;;;;6.65;3.80;;;14.00;99.90;;;;;;5072223;28;20056;-76
2022/06/01 09:52:40;;;;;;;5.90;2.78;;;14.10;99.90;;;;;;5072413;28;20088;-77
2022/06/01 09:55:20;;;;;;;4.85;2.70;;;14.20;99.90;;;;;;5054106;28;20041;-76
2022/06/01 09:58:05;;;;;;;4.40;2.22;;;14.60;99.90;;;;;;5072479;28;20417;-76
2022/06/01 10:06:27;;;;;;;3.80;2.17;;;17.70;99.90;;;;;;5072194;28;20094;-75
2022/06/01 10:09:12;;;;;;;3.97;2.08;;;18.70;94.50;;;;;;5075444;28;20090;-75
2022/06/01 10:11:46;;;;;;;4.25;2.25;;;19.40;68.20;;;;;;5075867;28;20458;-74
2022/06/01 10:14:25;;;;;;;4.80;2.60;;;20.00;38.70;;;;;;5075550;28;20474;-75
2022/06/01 10:17:14;;;;;;;5.22;2.90;;;18.90;46.20;;;;;;5075647;28;20040;-75
2022/06/01 10:20:04;;;;;;;5.00;2.63;;;18.10;56.90;;;;;;5057224;28;20048;-75
2022/06/01 10:23:03;;;;;;;5.38;3.60;;;17.30;72.20;;;;;;5075391;28;20052;-75
2022/06/01 10:25:37;;;;;;;5.82;3.47;;;15.90;99.90;;;;;;5064895;28;20060;-75
2022/06/01 10:28:06;;;;;;;6.25;4.25;;;14.80;99.90;;;;;;5075685;28;20049;-75
2022/06/01 10:30:36;;;;;;;10.13;4.10;;;14.00;99.90;;;;;;5075133;28;20040;-76
2022/06/01 10:33:10;;;;;;;6.65;3.70;;;13.70;99.90;;;;;;5075506;28;20044;-75
2022/06/01 10:35:45;;;;;;;56.17;7.43;;;13.50;99.90;;;;;;5057462;28;20036;-76
2022/06/01 10:38:29;;;;;;;186.60;15.57;;;13.80;99.90;;;;;;5075336;28;20048;-76
2022/06/01 10:41:26;;;;;;;82.00;8.82;;;14.60;99.90;;;;;;5074940;28;20286;-76
2022/06/01 10:44:07;;;;;;;11.50;4.15;;;15.20;99.90;;;;;;5071251;28;20123;-76
2022/06/01 10:46:59;;;;;;;6.88;3.67;;;15.80;99.90;;;;;;5075009;28;20036;-76
2022/06/01 10:49:57;;;;;;;6.63;3.83;;;16.00;99.90;;;;;;5074593;28;20040;-77
2022/06/01 10:52:33;;;;;;;6.55;3.70;;;16.40;99.90;;;;;;5063365;28;20052;-77
2022/06/01 10:55:13;;;;;;;;;;;17.20;99.90;;;;;;5075343;28;20119;-77
2022/06/01 10:57:42;;;;;;;6.63;3.38;;;17.90;99.90;;;;;;5074868;28;19921;-77
2022/06/01 11:00:12;;;;;;;20.02;4.93;;;18.60;93.30;;;;;;5073609;28;20056;-77
2022/06/01 11:02:52;;;;;;;4.25;2.58;;;19.10;57.10;;;;;;5074298;28;20414;-77
2022/06/01 11:05:26;;;;;;;6.22;2.60;;;19.80;50.30;;;;;;5074453;28;20048;-77
2022/06/01 11:08:15;;;;;;;16.25;4.82;;;19.60;59.90;;;;;;5074620;28;20119;-78
2022/06/01 11:10:54;;;;;;;6.03;4.32;;;18.30;99.90;;;;;;5056470;28;20079;-77
2022/06/01 11:13:25;;;;;;;15.02;6.35;;;16.90;99.90;;;;;;5074678;28;20040;-76
2022/06/01 11:16:06;;;;;;;10.35;5.70;;;15.70;99.90;;;;;;5056494;28;20054;-76
2022/06/01 11:18:55;;;;;;;10.05;7.07;;;14.80;99.90;;;;;;5073776;28;20449;-76
2022/06/01 11:21:29;;;;;;;10.05;6.40;;;14.20;99.90;;;;;;5074258;28;20510;-76
2022/06/01 11:24:16;;;;;;;8.38;6.68;;;13.70;99.90;;;;;;5074507;28;20052;-77
2022/06/01 11:26:49;;;;;;;13.07;8.73;;;13.30;99.90;;;;;;5074122;28;20054;-76
2022/06/01 11:29:20;;;;;;;11.43;5.03;;;13.20;99.90;;;;;;5074332;28;20403;-76
2022/06/01 11:31:52;;;;;;;5.70;4.30;;;13.00;99.90;;;;;;5074102;28;20426;-76
2022/06/01 11:34:30;;;;;;;7.63;4.43;;;12.50;99.90;;;;;;5056572;28;20148;-77
2022/06/01 11:37:00;;;;;;;8.23;4.43;;;12.10;99.90;;;;;;5074165;28;20044;-77
2022/06/01 11:39:38;;;;;;;6.50;4.53;;;11.70;99.90;;;;;;5073989;28;20048;-76
2022/06/01 11:42:38;;;;;;;10.00;5.03;;;11.50;99.90;;;;;;5074030;28;20050;-77
2022/06/01 11:45:28;;;;;;;8.20;4.80;;;11.60;99.90;;;;;;5074440;28;20082;-77
2022/06/01 11:48:00;;;;;;;8.48;5.00;;;11.30;99.90;;;;;;5076626;28;20052;-76
2022/06/01 11:50:55;;;;;;;8.20;6.18;;;11.30;99.90;;;;;;5077479;28;20051;-76
2022/06/01 11:53:28;;;;;;;8.57;6.15;;;11.40;99.90;;;;;;5077838;28;20064;-76
2022/06/01 11:56:08;;;;;;;8.23;6.25;;;11.60;99.90;;;;;;5076606;28;20495;-76
2022/06/01 11:58:34;;;;;;;11.57;7.45;;;11.80;99.90;;;;;;5076541;28;20489;-76
2022/06/01 12:01:14;;;;;;;19.83;8.68;;;12.10;99.90;;;;;;5075856;28;20060;-77
2022/06/01 12:03:53;;;;;;;18.35;8.93;;;12.60;99.90;;;;;;5077507;28;20048;-76
2022/06/01 12:06:44;;;;;;;583.88;54.50;;;13.40;99.90;;;;;;5058455;28;20055;-76
2022/06/01 12:09:50;;;;;;;835.83;81.95;;;14.70;99.90;;;;;;5075787;28;20048;-76
2022/06/01 12:12:26;;;;;;;27.25;7.65;;;16.20;99.90;;;;;;5045363;28;20075;-76
2022/06/01 12:15:03;;;;;;;1107.55;91.75;;;17.10;99.90;;;;;;5072619;28;20044;-77
2022/06/01 12:17:35;;;;;;;6.95;5.53;;;17.50;99.90;;;;;;5072112;28;20421;-77
2022/06/01 12:20:39;;;;;;;4.47;2.33;;;17.60;99.90;;;;;;5071483;28;20498;-77
2022/06/01 12:28:56;;;;;;;30.38;3.95;;;17.60;99.90;;;;;;5071182;28;20068;-76
2022/06/01 12:31:33;;;;;;;10.05;2.92;;;18.70;99.90;;;;;;5071022;28;20056;-77
2022/06/01 12:34:09;;;;;;;150.18;11.35;;;19.80;99.90;;;;;;5070779;28;20040;-77
2022/06/01 12:36:38;;;;;;;25.17;3.22;;;20.00;99.90;;;;;;5070691;28;20048;-77
2022/06/01 12:39:06;;;;;;;6.47;2.65;;;20.40;99.90;;;;;;5070694;28;20482;-76
2022/06/01 12:41:35;;;;;;;71.32;7.03;;;19.90;99.90;;;;;;5070466;28;20040;-77
2022/06/01 12:44:06;;;;;;;72.43;8.45;;;19.10;99.90;;;;;;5070219;28;20048;-77
2022/06/01 12:46:41;;;;;;;6.90;2.97;;;19.20;99.90;;;;;;5070366;28;20052;-77
2022/06/01 12:49:40;;;;;;;4.80;3.20;;;19.20;99.90;;;;;;5070588;28;20053;-77
2022/06/01 12:52:17;;;;;;;4.68;3.08;;;20.10;90.40;;;;;;5070489;28;20059;-77
2022/06/01 12:55:04;;;;;;;5.32;3.60;;;19.30;98.90;;;;;;5072913;28;20049;-76
2022/06/01 12:57:31;;;;;;;3.72;2.75;;;18.20;99.90;;;;;;5072562;28;20551;-77
2022/06/01 13:00:05;;;;;;;3.20;2.28;;;17.40;99.90;;;;;;5072163;28;20091;-76
2022/06/01 13:02:38;;;;;;;4.90;2.05;;;16.60;99.90;;;;;;5072435;28;20127;-76
2022/06/01 13:05:08;;;;;;;9.77;1.33;;;15.70;99.90;;;;;;5075180;28;20059;-75
2022/06/01 13:07:39;;;;;;;2.15;1.00;;;14.00;99.90;;;;;;5074055;28;20040;-75
2022/06/01 13:10:09;;;;;;;4.53;1.70;;;12.90;99.90;;;;;;5074450;28;20053;-75
2022/06/01 13:12:37;;;;;;;2.40;1.35;;;12.50;99.90;;;;;;5074820;28;20126;-75
2022/06/01 13:15:21;;;;;;;3.05;1.30;;;12.30;99.90;;;;;;5073693;28;20086;-75
2022/06/01 13:17:58;;;;;;;2.42;1.17;;;12.20;99.90;;;;;;5073857;28;20394;-75
2022/06/01 13:20:34;;;;;;;2.80;1.55;;;12.40;99.90;;;;;;5073131;28;20410;-74
2022/06/01 13:23:01;;;;;;;;;;;12.60;99.90;;;;;;5073606;28;20052;-75
2022/06/01 13:25:34;;;;;;;3.50;1.33;;;12.60;99.90;;;;;;5072878;28;20312;-75
2022/06/01 13:28:00;;;;;;;3.15;1.25;;;12.60;99.90;;;;;;5073392;28;20147;-75
2022/06/01 13:30:29;;;;;;;3.17;1.08;;;12.50;99.90;;;;;;5073996;28;20049;-75